aviador You're here:

PAII Decoded Metar

EGEGIK in AK, USA
Report Time2018-02-17 21:56:00
UTC Time2018-02-17 23:39:41
Flight Rules Old
Wind130° at 15 Gusting to 20 kt
W.Decomp.*RWY 12: 14.9 kt HW 2.1 kt LCW
RWY 03: 2.1 kt HW 14.9 kt RCW
W.Rank130° ranks 2
Current wind is above 130° avg. (13.7)
Visibility9999 m
Phenomena:N/A
Clouds:N/A
Expected CloudBase > 800 ft AGL from Temp-Dew spread
CeilingNone
Temp01°C (ISA -14)
Dew Point-1°C (87% RH)
AAT-6.5°C
QNH1035 hPa
Density Alt-2,254 ft
Elevation98 ft
Report Wrong Elevation
Raw Report
PAII 172156Z AUTO 13015G20KT 10SM CLR 01/M01 A3055 RMK AO2 SLP350
T00111006 FZRANO=

Extra information for PAII:More info

Metar Taf Metar & Taf Last 4 Metars F.Rules Stats Wind Profile Meteogram Temp Stats Airport Information Weather charts Add Link Nearby VenuesMetar ALERT Operation Metar Decoded Social comments

AIRNAV info for PAII